Аэропорт: Нижневартовск. Нижневартовск

ICAO: USNN

METAR:
2019-09-21 16:00:00
USNN 211600Z 25002MPS CAVOK 02/00 Q1016 R21/0///65 NOSIG RMK QFE757
METAR:
2019-09-21 14:00:00
TAF COR USNN 211400Z 2115/2215 20003MPS 9999 SCT020CB BECMG 2202/2203 14005G12MPS FM220600 14008G18MPS 5000 -RA BKN011 OVC040